»·PEaware :: N48A KBOI-KBZN

N48A :: KBOI-KBZN

FLIGHT INFORMATION

Flight Status: Arrived
Operator: Privately registered:
United States
More flights under this callsign
Pilot: Max H. (24278)
Aircraft: PILATUS PC-12 EAGLE
(PC12)
More flights by this aircraft type
Origin: KBOI Boise Air Terminal/Gowen
United States
Destination: KBZN Gallatin
United States
More flights between these airports :: More routes between these airports
Route: BARNR
File this flight plan on PilotEdge
Remarks:
Altitude:
(Current/Filed)
19,000ft
Speed:
(Current/Filed)
150kts
Departed: 09-Oct-20 03:52 PM
Arrived: 09-Oct-20 04:58 PM
Distance/Time
Traveled:
254nm/1:05
Distance/Time
To Go:
Arrived

Flight Plot

Page will automatically refresh every two minutes.

Flight plan parsing failed; only flown route is shown


Map Options




Map Legend


Flown Route
Filed Route
Departure Airport
Arrival Airport
Navaid (VOR, NDB)
Fix

Horizontal Profiles

Position Reports

Time Latitude Longitude Heading Altitude Ground
Speed
09-Oct-20 15:41 43.562236 -116.206289 270 2865ft 0kts
09-Oct-20 15:42 43.562236 -116.206289 270 2865ft 0kts
09-Oct-20 15:43 43.562236 -116.206289 270 2865ft 0kts
09-Oct-20 15:44 43.562236 -116.206289 270 2865ft 0kts
09-Oct-20 15:45 43.562236 -116.206289 270 2865ft 0kts
09-Oct-20 15:46 43.562236 -116.206289 270 2865ft 0kts
09-Oct-20 15:47 43.562236 -116.206289 270 2865ft 0kts
09-Oct-20 15:48 43.562236 -116.206289 270 2865ft 0kts
09-Oct-20 15:49 43.561497 -116.206222 185 2865ft 9kts
09-Oct-20 15:50 43.559705 -116.202626 130 2868ft 6kts
09-Oct-20 15:51 43.559600 -116.205834 295 2862ft 52kts
09-Oct-20 15:52 43.574814 -116.253844 294 3645ft 178kts
09-Oct-20 15:53 43.596955 -116.321789 295 4763ft 204kts
09-Oct-20 15:54 43.639832 -116.346746 46 5863ft 217kts
09-Oct-20 15:55 43.672168 -116.274983 57 6970ft 222kts
09-Oct-20 15:56 43.704116 -116.201285 58 8067ft 225kts
09-Oct-20 15:58 43.736579 -116.126584 58 9168ft 227kts
09-Oct-20 15:59 43.769218 -116.051307 58 10268ft 229kts
09-Oct-20 16:00 43.802006 -115.975497 59 11369ft 230kts
09-Oct-20 16:01 43.834953 -115.899116 59 12474ft 231kts
09-Oct-20 16:02 43.867853 -115.822642 59 13578ft 232kts
09-Oct-20 16:03 43.900851 -115.745728 60 14684ft 233kts
09-Oct-20 16:04 43.934014 -115.668594 59 15790ft 233kts
09-Oct-20 16:05 43.967082 -115.591383 60 16895ft 233kts
09-Oct-20 16:06 44.000058 -115.514016 59 18001ft 233kts
09-Oct-20 16:07 44.034022 -115.436832 59 18968ft 240kts
09-Oct-20 16:08 44.070859 -115.352709 59 19011ft 265kts
09-Oct-20 16:09 44.109773 -115.263445 60 19029ft 271kts
09-Oct-20 16:10 44.148942 -115.173353 60 19034ft 273kts
09-Oct-20 16:10 44.181726 -115.097773 60 19026ft 274kts
09-Oct-20 16:12 44.227701 -114.991470 60 19026ft 274kts
09-Oct-20 16:12 44.260490 -114.915394 57 19027ft 275kts
09-Oct-20 16:14 44.306350 -114.808723 57 19027ft 275kts
09-Oct-20 16:14 44.339114 -114.732238 57 19027ft 275kts
09-Oct-20 16:16 44.384918 -114.624968 57 19027ft 275kts
09-Oct-20 16:16 44.417582 -114.548221 57 19028ft 275kts
09-Oct-20 16:17 44.456604 -114.456267 57 19028ft 275kts
09-Oct-20 16:18 44.495612 -114.364041 57 19028ft 275kts
09-Oct-20 16:19 44.534537 -114.271748 58 19026ft 275kts
09-Oct-20 16:20 44.573440 -114.179179 58 19027ft 275kts
09-Oct-20 16:21 44.612196 -114.086635 58 19027ft 275kts
09-Oct-20 16:22 44.650885 -113.993955 58 19026ft 275kts
09-Oct-20 16:23 44.689581 -113.900966 58 19022ft 275kts
09-Oct-20 16:24 44.728199 -113.807835 58 19017ft 275kts
09-Oct-20 16:25 44.766611 -113.714912 58 19013ft 275kts
09-Oct-20 16:26 44.805007 -113.621725 58 19009ft 274kts
09-Oct-20 16:27 44.843201 -113.528721 58 19009ft 274kts
09-Oct-20 16:28 44.881953 -113.434298 58 19010ft 284kts
09-Oct-20 16:29 44.921722 -113.336742 58 19008ft 289kts
09-Oct-20 16:30 44.961864 -113.237927 58 19009ft 290kts
09-Oct-20 16:31 45.002019 -113.138888 58 19013ft 292kts
09-Oct-20 16:32 45.042404 -113.038848 58 19017ft 294kts
09-Oct-20 16:33 45.083251 -112.937274 58 19018ft 298kts
09-Oct-20 16:34 45.124343 -112.834711 58 19018ft 302kts
09-Oct-20 16:35 45.165974 -112.730414 58 19018ft 304kts
09-Oct-20 16:36 45.207535 -112.625897 58 19019ft 304kts
09-Oct-20 16:37 45.248956 -112.521269 58 19019ft 305kts
09-Oct-20 16:38 45.290485 -112.416036 58 19020ft 305kts
09-Oct-20 16:39 45.331739 -112.311124 59 19008ft 304kts
09-Oct-20 16:40 45.372832 -112.206210 59 19023ft 303kts
09-Oct-20 16:41 45.421049 -112.104415 34 17987ft 321kts
09-Oct-20 16:42 45.493985 -112.028850 33 17046ft 316kts
09-Oct-20 16:43 45.564292 -111.955145 34 16120ft 324kts
09-Oct-20 16:44 45.637468 -111.876897 36 14616ft 326kts
09-Oct-20 16:45 45.706139 -111.800878 36 13280ft 296kts
09-Oct-20 16:46 45.769592 -111.731118 36 12083ft 283kts
09-Oct-20 16:47 45.831040 -111.663069 35 10893ft 276kts
09-Oct-20 16:48 45.890079 -111.595731 35 9703ft 267kts
09-Oct-20 16:49 45.946487 -111.530561 35 8981ft 244kts
09-Oct-20 16:50 45.998925 -111.469408 42 8131ft 250kts
09-Oct-20 16:51 45.973532 -111.405718 175 7996ft 228kts
09-Oct-20 16:52 45.920783 -111.351664 135 7272ft 243kts
09-Oct-20 16:53 45.876407 -111.289761 135 6780ft 217kts
09-Oct-20 16:54 45.831407 -111.226937 135 5640ft 209kts
09-Oct-20 16:55 45.800003 -111.183000 135 4775ft 118kts
09-Oct-20 16:56 45.781807 -111.157805 134 4445ft 45kts
09-Oct-20 16:57 45.777734 -111.158623 229 4454ft 13kts

Navigation Log

Ident Type
Flight plan parsing failed, navigation log unavailable